createdAt,value
2018-01-16T00:00:53.312Z,924.2
2018-01-16T00:01:56.806Z,924.1
2018-01-16T00:03:00.243Z,924.2
2018-01-16T00:04:03.365Z,924.2
2018-01-16T00:05:06.801Z,924
2018-01-16T00:06:10.271Z,924
2018-01-16T00:07:13.420Z,924
2018-01-16T00:08:16.892Z,924.1
2018-01-16T00:09:20.118Z,924.1
2018-01-16T00:10:28.936Z,924
2018-01-16T00:11:32.484Z,923.8
2018-01-16T00:12:35.950Z,923.9
2018-01-16T00:13:39.389Z,923.9
2018-01-16T00:14:42.973Z,923.8
2018-01-16T00:15:46.831Z,923.9
2018-01-16T00:16:51.029Z,923.9
2018-01-16T00:17:54.456Z,923.8
2018-01-16T00:18:57.869Z,923.7
2018-01-16T00:20:01.848Z,923.7
2018-01-16T00:21:08.813Z,923.7
2018-01-16T00:22:12.153Z,923.7
2018-01-16T00:23:15.599Z,923.7
2018-01-16T00:24:18.943Z,923.7
2018-01-16T00:25:22.338Z,923.7
2018-01-16T00:26:26.507Z,923.6
2018-01-16T00:27:30.480Z,923.5
2018-01-16T00:28:33.910Z,923.6
2018-01-16T00:29:38.328Z,923.7
2018-01-16T00:30:41.800Z,923.6
2018-01-16T00:31:48.879Z,923.6
2018-01-16T00:32:53.424Z,923.6
2018-01-16T00:33:56.799Z,923.6
2018-01-16T00:35:00.610Z,923.7
2018-01-16T00:36:03.984Z,923.7
2018-01-16T00:37:08.133Z,923.6
2018-01-16T00:38:12.098Z,923.6
2018-01-16T00:39:15.378Z,923.7
2018-01-16T00:40:18.708Z,923.7
2018-01-16T00:41:21.909Z,923.7
2018-01-16T00:42:29.071Z,923.8
2018-01-16T00:43:33.621Z,923.6
2018-01-16T00:44:37.170Z,923.8
2018-01-16T00:45:41.843Z,923.8
2018-01-16T00:46:45.268Z,923.8
2018-01-16T00:47:50.036Z,923.8
2018-01-16T00:48:53.397Z,919.9
2018-01-16T00:49:56.473Z,923.8
2018-01-16T00:50:59.630Z,923.8
2018-01-16T00:52:02.907Z,923.7
2018-01-16T00:53:09.993Z,923.7
2018-01-16T00:54:13.484Z,923.7
2018-01-16T00:55:16.827Z,923.7
2018-01-16T00:56:19.958Z,923.6
2018-01-16T00:57:23.427Z,919.4
2018-01-16T00:58:26.763Z,923.7
2018-01-16T00:59:30.061Z,923.7
2018-01-16T01:00:33.606Z,923.5
2018-01-16T01:01:36.979Z,923.5
2018-01-16T01:02:40.334Z,923.6
2018-01-16T01:03:47.244Z,923.5
2018-01-16T01:04:51.071Z,923.5
2018-01-16T01:05:54.613Z,923.6
2018-01-16T01:06:57.839Z,923.5
2018-01-16T01:08:01.963Z,923.5
2018-01-16T01:09:05.161Z,923.4
2018-01-16T01:10:08.643Z,923.5
2018-01-16T01:11:12.111Z,923.5
2018-01-16T01:12:15.629Z,923.3
2018-01-16T01:13:19.091Z,923.2
2018-01-16T01:14:26.321Z,923.3
2018-01-16T01:15:29.905Z,923.1
2018-01-16T01:16:33.406Z,923.2
2018-01-16T01:17:37.259Z,923.1
2018-01-16T01:18:40.564Z,923.1
2018-01-16T01:19:45.717Z,923.2
2018-01-16T01:20:49.179Z,923.2
2018-01-16T01:21:53.088Z,923.2
2018-01-16T01:22:57.589Z,923.2
2018-01-16T01:24:00.634Z,923.1
2018-01-16T01:25:07.759Z,923.2
2018-01-16T01:26:11.163Z,923.1
2018-01-16T01:27:14.550Z,923.2
2018-01-16T01:28:17.931Z,923.2
2018-01-16T01:29:21.982Z,923.2
2018-01-16T01:30:25.470Z,923.2
2018-01-16T01:31:30.705Z,923.1
2018-01-16T01:32:34.074Z,923.2
2018-01-16T01:33:39.174Z,923.2
2018-01-16T01:34:42.595Z,923.2
2018-01-16T01:35:50.001Z,923.1
2018-01-16T01:36:54.522Z,919.2
2018-01-16T01:37:59.369Z,923.2
2018-01-16T01:39:02.684Z,923.1
2018-01-16T01:40:06.010Z,923
2018-01-16T01:41:09.170Z,923.1
2018-01-16T01:42:12.544Z,923.1
2018-01-16T01:43:15.875Z,923.1
2018-01-16T01:44:19.208Z,923.1
2018-01-16T01:45:23.167Z,923.1
2018-01-16T01:46:29.882Z,923.1
2018-01-16T01:47:33.303Z,923
2018-01-16T01:48:36.658Z,923.1
2018-01-16T01:49:39.784Z,923.2
2018-01-16T01:50:43.662Z,923.1
2018-01-16T01:51:46.787Z,923.1
2018-01-16T01:52:50.288Z,923
2018-01-16T01:53:54.549Z,923
2018-01-16T01:54:57.560Z,923.1
2018-01-16T01:56:00.935Z,923.1
2018-01-16T01:57:07.929Z,923
2018-01-16T01:58:11.457Z,923
2018-01-16T01:59:15.120Z,919.4
2018-01-16T02:00:18.486Z,923
2018-01-16T02:01:21.943Z,923.1
2018-01-16T02:02:25.334Z,923.1
2018-01-16T02:03:28.742Z,923.1
2018-01-16T02:04:32.147Z,923.2
2018-01-16T02:05:36.485Z,923.1
2018-01-16T02:06:40.385Z,923.2
2018-01-16T02:07:47.047Z,923.2
2018-01-16T02:08:51.219Z,923.1
2018-01-16T02:09:54.676Z,923.2
2018-01-16T02:10:58.135Z,923.2
2018-01-16T02:12:01.500Z,923.1
2018-01-16T02:13:04.889Z,923.2
2018-01-16T02:14:09.124Z,923.2
2018-01-16T02:15:12.255Z,923.2
2018-01-16T02:16:15.764Z,923.2
2018-01-16T02:17:19.630Z,923.3
2018-01-16T02:18:26.242Z,923.2
2018-01-16T02:19:29.501Z,923.2
2018-01-16T02:20:32.928Z,923.1
2018-01-16T02:21:36.119Z,923
2018-01-16T02:22:39.465Z,923
2018-01-16T02:23:42.735Z,923
2018-01-16T02:24:46.159Z,923
2018-01-16T02:25:49.505Z,922.9
2018-01-16T02:26:52.762Z,923
2018-01-16T02:27:56.082Z,919.1
2018-01-16T02:29:03.945Z,922.9
2018-01-16T02:30:07.391Z,922.9
2018-01-16T02:31:10.782Z,922.8
2018-01-16T02:32:14.824Z,922.8
2018-01-16T02:33:18.233Z,922.7
2018-01-16T02:34:21.637Z,922.8
2018-01-16T02:35:25.062Z,922.8
2018-01-16T02:36:28.506Z,922.7
2018-01-16T02:37:31.980Z,922.7
2018-01-16T02:38:35.471Z,922.8
2018-01-16T02:39:42.129Z,922.6
2018-01-16T02:40:46.488Z,922.7
2018-01-16T02:41:49.923Z,922.8
2018-01-16T02:42:53.787Z,922.7
2018-01-16T02:43:57.044Z,922.8
2018-01-16T02:45:00.629Z,922.7
2018-01-16T02:46:04.450Z,922.7
2018-01-16T02:47:07.592Z,922.7
2018-01-16T02:48:11.107Z,922.7
2018-01-16T02:49:14.546Z,922.8
2018-01-16T02:50:22.080Z,922.7
2018-01-16T02:51:25.419Z,922.7
2018-01-16T02:52:28.574Z,922.7
2018-01-16T02:53:32.994Z,922.6
2018-01-16T02:54:36.535Z,922.6
2018-01-16T02:55:39.865Z,922.7
2018-01-16T02:56:43.209Z,922.7
2018-01-16T02:57:46.440Z,922.7
2018-01-16T02:58:49.856Z,922.6
2018-01-16T02:59:53.273Z,922.7
2018-01-16T03:01:00.444Z,916.5
2018-01-16T03:02:03.854Z,922.5
2018-01-16T03:03:07.062Z,922.5
2018-01-16T03:04:10.152Z,922.5
2018-01-16T03:05:14.152Z,922.7
2018-01-16T03:06:17.586Z,922.6
2018-01-16T03:07:22.281Z,922.6
2018-01-16T03:08:25.449Z,922.6
2018-01-16T03:09:31.006Z,922.6
2018-01-16T03:10:34.292Z,922.5
2018-01-16T03:11:41.763Z,922.5
2018-01-16T03:12:45.105Z,922.7
2018-01-16T03:13:49.051Z,922.6
2018-01-16T03:14:52.256Z,922.6
2018-01-16T03:15:55.702Z,922.6
2018-01-16T03:16:59.148Z,922.6
2018-01-16T03:18:02.313Z,922.6
2018-01-16T03:19:05.667Z,922.6
2018-01-16T03:20:08.954Z,922.6
2018-01-16T03:21:12.508Z,922.6
2018-01-16T03:22:19.355Z,922.5
2018-01-16T03:23:22.419Z,922.5
2018-01-16T03:24:25.719Z,922.6
2018-01-16T03:25:29.114Z,922.5
2018-01-16T03:26:32.331Z,922.5
2018-01-16T03:27:35.916Z,922.5
2018-01-16T03:28:39.091Z,922.5
2018-01-16T03:29:42.538Z,922.5
2018-01-16T03:30:45.971Z,918.7
2018-01-16T03:31:51.195Z,922.5
2018-01-16T03:32:57.703Z,922.5
2018-01-16T03:34:00.925Z,922.4
2018-01-16T03:35:05.079Z,922.5
2018-01-16T03:36:08.582Z,922.4
2018-01-16T03:37:11.960Z,922.5
2018-01-16T03:38:15.219Z,922.4
2018-01-16T03:39:18.573Z,922.4
2018-01-16T03:40:22.122Z,922.3
2018-01-16T03:41:25.198Z,922.3
2018-01-16T03:42:29.261Z,922.5
2018-01-16T03:43:36.151Z,922.4
2018-01-16T03:44:40.173Z,918.5
2018-01-16T03:45:44.488Z,922.3
2018-01-16T03:46:48.152Z,922.3
2018-01-16T03:47:51.427Z,922.3
2018-01-16T03:48:54.920Z,922.4
2018-01-16T03:49:58.343Z,922.3
2018-01-16T03:51:03.687Z,922.4
2018-01-16T03:52:06.996Z,922.3
2018-01-16T03:53:10.692Z,922.3
2018-01-16T03:54:17.834Z,922.3
2018-01-16T03:55:21.279Z,922.3
2018-01-16T03:56:25.926Z,922.3
2018-01-16T03:57:30.075Z,922.3
2018-01-16T03:58:33.432Z,922.4
2018-01-16T03:59:36.804Z,922.4
2018-01-16T04:00:41.692Z,922.3
2018-01-16T04:01:46.717Z,922.5
2018-01-16T04:02:50.427Z,922.4
2018-01-16T04:03:54.714Z,922.5
2018-01-16T04:05:02.437Z,922.6
2018-01-16T04:06:07.965Z,922.4
2018-01-16T04:07:11.224Z,922.4
2018-01-16T04:08:15.888Z,922.4
2018-01-16T04:09:19.334Z,922.4
2018-01-16T04:10:22.718Z,918.7
2018-01-16T04:11:26.694Z,922.4
2018-01-16T04:12:29.817Z,922.4
2018-01-16T04:13:33.471Z,922.2
2018-01-16T04:14:37.306Z,922.1
2018-01-16T04:15:45.680Z,922.2
2018-01-16T04:16:51.119Z,922.3
2018-01-16T04:17:54.588Z,922.4
2018-01-16T04:18:59.630Z,922.5
2018-01-16T04:20:02.997Z,922.2
2018-01-16T04:21:06.292Z,922
2018-01-16T04:22:09.535Z,922
2018-01-16T04:23:12.808Z,922.2
2018-01-16T04:24:16.779Z,922.1
2018-01-16T04:25:20.274Z,922.1
2018-01-16T04:26:59.958Z,922.2
2018-01-16T04:28:02.999Z,922.1
2018-01-16T04:29:06.562Z,922.1
2018-01-16T04:30:10.308Z,922.1
2018-01-16T04:31:17.104Z,922.2
2018-01-16T04:32:20.509Z,922.3
2018-01-16T04:33:23.661Z,922.2
2018-01-16T04:34:27.704Z,922.2
2018-01-16T04:35:32.128Z,922.3
2018-01-16T04:36:35.532Z,922.1
2018-01-16T04:37:42.487Z,922.1
2018-01-16T04:38:45.868Z,922.1
2018-01-16T04:39:49.274Z,922
2018-01-16T04:40:53.481Z,922.1
2018-01-16T04:41:56.843Z,922.1
2018-01-16T04:43:00.866Z,922.2
2018-01-16T04:44:04.955Z,922.2
2018-01-16T04:45:08.448Z,922
2018-01-16T04:46:11.895Z,922.2
2018-01-16T04:47:15.332Z,922.2
2018-01-16T04:48:24.172Z,922
2018-01-16T04:49:29.530Z,922.2
2018-01-16T04:50:33.648Z,921.9
2018-01-16T04:51:38.119Z,921.9
2018-01-16T04:52:42.910Z,921.9
2018-01-16T04:53:46.271Z,922
2018-01-16T04:54:49.610Z,921.9
2018-01-16T04:55:53.006Z,922
2018-01-16T04:56:58.705Z,921.9
2018-01-16T04:58:02.912Z,921.9
2018-01-16T04:59:09.840Z,921.9
2018-01-16T05:00:14.139Z,921.9
2018-01-16T05:01:17.623Z,921.9
2018-01-16T05:02:21.844Z,922
2018-01-16T05:03:25.145Z,921.8
2018-01-16T05:04:28.484Z,921.8
2018-01-16T05:05:32.435Z,921.8
2018-01-16T05:06:37.117Z,921.9
2018-01-16T05:07:40.570Z,921.8
2018-01-16T05:08:44.522Z,921.8
2018-01-16T05:09:52.296Z,921.7
2018-01-16T05:10:55.824Z,921.6
2018-01-16T05:11:59.130Z,921.4
2018-01-16T05:13:04.565Z,921.6
2018-01-16T05:14:08.175Z,921.7
2018-01-16T05:15:12.300Z,921.6
2018-01-16T05:16:15.717Z,921.6
2018-01-16T05:17:19.232Z,921.5
2018-01-16T05:18:23.514Z,921.4
2018-01-16T05:19:26.833Z,921.4
2018-01-16T05:20:33.662Z,921.3
2018-01-16T05:21:38.518Z,919.9
2018-01-16T05:22:43.060Z,921.3
2018-01-16T05:23:46.455Z,921.4
2018-01-16T05:24:50.711Z,921.5
2018-01-16T05:25:54.146Z,921.3
2018-01-16T05:26:57.796Z,921.3
2018-01-16T05:28:01.241Z,921.3
2018-01-16T05:29:06.737Z,921.4
2018-01-16T05:30:11.017Z,921.4
2018-01-16T05:31:19.315Z,921.2
2018-01-16T05:32:24.361Z,921.3
2018-01-16T05:33:27.765Z,921.3
2018-01-16T05:34:31.116Z,921.3
2018-01-16T05:35:34.763Z,921.4
2018-01-16T05:36:38.137Z,921.4
2018-01-16T05:37:41.656Z,921.4
2018-01-16T05:38:45.232Z,921.4
2018-01-16T05:39:49.165Z,921.2
2018-01-16T05:40:52.694Z,921.2
2018-01-16T05:42:31.632Z,921.2
2018-01-16T05:43:35.123Z,921.2
2018-01-16T05:44:38.593Z,921.2
2018-01-16T05:45:45.048Z,921.2
2018-01-16T05:46:49.824Z,921.2
2018-01-16T05:47:54.097Z,921.2
2018-01-16T05:48:57.643Z,921.1
2018-01-16T05:50:02.195Z,917.5
2018-01-16T05:51:06.169Z,921.3
2018-01-16T05:52:09.630Z,921.2
2018-01-16T05:53:18.348Z,921.1
2018-01-16T05:54:22.735Z,921.1
2018-01-16T05:55:27.248Z,921
2018-01-16T05:56:30.694Z,920.8
2018-01-16T05:57:34.312Z,920.8
2018-01-16T05:58:38.520Z,921
2018-01-16T05:59:44.368Z,921
2018-01-16T06:00:47.605Z,921.1
2018-01-16T06:01:52.371Z,921
2018-01-16T06:02:55.770Z,921
2018-01-16T06:04:02.579Z,921.1
2018-01-16T06:05:05.938Z,921
2018-01-16T06:06:09.442Z,917.3
2018-01-16T06:07:13.662Z,921
2018-01-16T06:08:17.117Z,920.9
2018-01-16T06:09:21.061Z,920.9
2018-01-16T06:10:25.211Z,920.9
2018-01-16T06:11:29.477Z,920.8
2018-01-16T06:12:33.034Z,917.2
2018-01-16T06:13:37.888Z,920.8
2018-01-16T06:14:45.079Z,920.9
2018-01-16T06:15:48.989Z,920.9
2018-01-16T06:16:53.055Z,920.9
2018-01-16T06:17:56.382Z,920.8
2018-01-16T06:18:59.865Z,920.9
2018-01-16T06:20:03.224Z,921
2018-01-16T06:21:06.618Z,920.9
2018-01-16T06:22:10.068Z,920.9
2018-01-16T06:23:14.366Z,920.9
2018-01-16T06:24:17.852Z,920.8
2018-01-16T06:25:25.473Z,920.8
2018-01-16T06:26:30.232Z,920.7
2018-01-16T06:27:33.623Z,920.7
2018-01-16T06:28:38.070Z,920.6
2018-01-16T06:29:41.514Z,920.7
2018-01-16T06:30:44.944Z,920.4
2018-01-16T06:31:49.702Z,920.4
2018-01-16T06:32:53.527Z,920.5
2018-01-16T06:34:00.058Z,920.5
2018-01-16T06:35:03.534Z,920.4
2018-01-16T06:36:10.597Z,920.5
2018-01-16T06:37:13.961Z,916.6
2018-01-16T06:38:17.468Z,920.4
2018-01-16T06:39:21.253Z,920.5
2018-01-16T06:40:24.727Z,920.5
2018-01-16T06:41:27.818Z,920.4
2018-01-16T06:42:31.859Z,920.4
2018-01-16T06:43:35.959Z,920.4
2018-01-16T06:44:41.911Z,916.3
2018-01-16T06:45:47.154Z,920.2
2018-01-16T06:46:55.320Z,920.3
2018-01-16T06:47:59.717Z,920.2
2018-01-16T06:49:03.295Z,920.2
2018-01-16T06:50:07.900Z,920.1
2018-01-16T06:51:11.431Z,920.1
2018-01-16T06:52:16.046Z,920.2
2018-01-16T06:53:19.404Z,920.2
2018-01-16T06:54:22.799Z,920.1
2018-01-16T06:55:26.151Z,920.3
2018-01-16T06:56:30.387Z,920.2
2018-01-16T06:58:11.325Z,920.2
2018-01-16T06:59:17.923Z,920.2
2018-01-16T07:00:22.299Z,920.3
2018-01-16T07:01:26.190Z,920.1
2018-01-16T07:02:29.492Z,920.2
2018-01-16T07:03:32.900Z,920
2018-01-16T07:04:36.211Z,920.1
2018-01-16T07:05:40.643Z,920.2
2018-01-16T07:06:44.025Z,920.2
2018-01-16T07:07:49.089Z,920.1
2018-01-16T07:08:57.850Z,920.1
2018-01-16T07:10:01.163Z,920
2018-01-16T07:11:04.588Z,919.9
2018-01-16T07:12:08.713Z,919.9
2018-01-16T07:13:12.205Z,920
2018-01-16T07:14:15.782Z,920
2018-01-16T07:15:19.997Z,920
2018-01-16T07:16:23.639Z,920.1
2018-01-16T07:17:27.741Z,920.3
2018-01-16T07:18:31.045Z,920.4
2018-01-16T07:19:38.448Z,920.3
2018-01-16T07:20:41.939Z,920.3
2018-01-16T07:21:45.479Z,920.2
2018-01-16T07:22:49.541Z,920.4
2018-01-16T07:23:53.966Z,920.3
2018-01-16T07:24:58.710Z,920.4
2018-01-16T07:26:01.803Z,920.5
2018-01-16T07:27:05.309Z,920.4
2018-01-16T07:28:08.615Z,920.6
2018-01-16T07:29:12.636Z,920.7
2018-01-16T07:30:19.944Z,920.7
2018-01-16T07:31:23.324Z,920.7
2018-01-16T07:32:28.926Z,920.8
2018-01-16T07:33:32.581Z,920.7
2018-01-16T07:34:35.954Z,920.8
2018-01-16T07:35:39.643Z,920.8
2018-01-16T07:36:43.158Z,920.8
2018-01-16T07:37:46.823Z,920.8
2018-01-16T07:38:51.824Z,920.9
2018-01-16T07:39:55.919Z,916.7
2018-01-16T07:41:36.189Z,920.6
2018-01-16T07:42:41.562Z,920.7
2018-01-16T07:43:45.624Z,920.7
2018-01-16T07:44:49.091Z,920.5
2018-01-16T07:45:54.162Z,920.5
2018-01-16T07:46:57.728Z,920.4
2018-01-16T07:48:01.703Z,920.3
2018-01-16T07:49:05.928Z,916.4
2018-01-16T07:50:11.247Z,920.3
2018-01-16T07:51:14.800Z,916.5
2018-01-16T07:52:24.519Z,920.3
2018-01-16T07:53:27.792Z,916.7
2018-01-16T07:54:32.089Z,920.6
2018-01-16T07:55:38.308Z,920.5
2018-01-16T07:56:41.673Z,920.4
2018-01-16T07:57:45.702Z,920.4
2018-01-16T07:58:49.825Z,920.4
2018-01-16T07:59:54.531Z,916.6
2018-01-16T08:00:58.170Z,920.2
2018-01-16T08:02:02.892Z,919.9
2018-01-16T08:03:13.107Z,920.2
2018-01-16T08:04:16.581Z,920.3
2018-01-16T08:05:20.088Z,920.3
2018-01-16T08:06:23.994Z,920.3
2018-01-16T08:07:27.456Z,920.4
2018-01-16T08:08:30.915Z,920.4
2018-01-16T08:09:34.278Z,920.3
2018-01-16T08:10:37.766Z,920.3
2018-01-16T08:11:41.157Z,920.2
2018-01-16T08:12:44.728Z,920.3
2018-01-16T08:13:53.959Z,920.4
2018-01-16T08:14:57.819Z,920.4
2018-01-16T08:16:02.910Z,920.3
2018-01-16T08:17:06.474Z,920.5
2018-01-16T08:18:09.969Z,920.5
2018-01-16T08:19:13.480Z,920.4
2018-01-16T08:20:17.484Z,920.4
2018-01-16T08:21:20.898Z,920.4
2018-01-16T08:22:24.373Z,920.5
2018-01-16T08:23:27.784Z,920.5
2018-01-16T08:24:34.466Z,920.5
2018-01-16T08:25:37.774Z,920.7
2018-01-16T08:26:42.984Z,920.7
2018-01-16T08:27:47.105Z,920.6
2018-01-16T08:28:50.528Z,920.7
2018-01-16T08:29:53.956Z,920.8
2018-01-16T08:30:59.000Z,920.7
2018-01-16T08:32:04.364Z,920.6
2018-01-16T08:33:07.789Z,920.6
2018-01-16T08:34:13.121Z,920.6
2018-01-16T08:35:21.303Z,920.5
2018-01-16T08:36:25.234Z,920.4
2018-01-16T08:37:30.548Z,920.4
2018-01-16T08:38:34.902Z,920.4
2018-01-16T08:39:39.036Z,920.5
2018-01-16T08:40:42.002Z,920.5
2018-01-16T08:41:45.550Z,920.5
2018-01-16T08:42:49.856Z,920.5
2018-01-16T08:43:53.905Z,920.6
2018-01-16T08:44:57.317Z,920.7
2018-01-16T08:46:05.092Z,920.6
2018-01-16T08:47:09.178Z,920.6
2018-01-16T08:48:13.423Z,920.6
2018-01-16T08:49:18.701Z,920.6
2018-01-16T08:50:23.022Z,920.7
2018-01-16T08:51:27.616Z,920.6
2018-01-16T08:52:35.323Z,920.5
2018-01-16T08:53:40.425Z,920.7
2018-01-16T08:54:44.447Z,920.6
2018-01-16T08:55:49.704Z,920.7
2018-01-16T08:56:59.157Z,920.5
2018-01-16T08:58:02.653Z,920.8
2018-01-16T08:59:09.230Z,921
2018-01-16T09:00:14.648Z,920.9
2018-01-16T09:01:18.736Z,920.9
2018-01-16T09:02:24.102Z,921
2018-01-16T09:03:27.593Z,921
2018-01-16T09:04:32.302Z,920.8
2018-01-16T09:05:35.554Z,921
2018-01-16T09:06:40.447Z,920.9
2018-01-16T09:07:47.516Z,921.1
2018-01-16T09:08:50.929Z,921.3
2018-01-16T09:09:54.302Z,921.3
2018-01-16T09:10:58.350Z,921.2
2018-01-16T09:12:01.839Z,921.1
2018-01-16T09:13:05.999Z,921.3
2018-01-16T09:14:10.461Z,921.3
2018-01-16T09:15:14.583Z,921.2
2018-01-16T09:16:18.043Z,921.3
2018-01-16T09:17:21.457Z,921.4
2018-01-16T09:18:29.291Z,921.2
2018-01-16T09:19:32.808Z,921.2
2018-01-16T09:20:36.726Z,921
2018-01-16T09:21:43.670Z,921.2
2018-01-16T09:22:48.373Z,921.3
2018-01-16T09:23:52.659Z,921.1
2018-01-16T09:24:56.216Z,921
2018-01-16T09:26:00.341Z,921.1
2018-01-16T09:27:04.473Z,920.8
2018-01-16T09:28:08.480Z,920.9
2018-01-16T09:29:16.267Z,920.8
2018-01-16T09:30:19.788Z,920.8
2018-01-16T09:31:24.833Z,920.8
2018-01-16T09:32:28.927Z,920.7
2018-01-16T09:33:33.052Z,920.7
2018-01-16T09:34:37.063Z,920.7
2018-01-16T09:35:43.074Z,920.8
2018-01-16T09:36:46.512Z,920.7
2018-01-16T09:37:49.995Z,920.7
2018-01-16T09:38:53.909Z,920.6
2018-01-16T09:40:32.954Z,920.7
2018-01-16T09:41:37.293Z,920.9
2018-01-16T09:42:41.320Z,920.8
2018-01-16T09:43:46.120Z,920.8
2018-01-16T09:44:49.407Z,920.7
2018-01-16T09:45:54.073Z,920.8
2018-01-16T09:46:58.783Z,920.8
2018-01-16T09:48:03.496Z,920.7
2018-01-16T09:49:08.124Z,920.8
2018-01-16T09:50:12.230Z,920.9
2018-01-16T09:51:20.446Z,920.8
2018-01-16T09:52:25.977Z,920.8
2018-01-16T09:53:30.230Z,921
2018-01-16T09:54:33.834Z,921
2018-01-16T09:55:38.450Z,920.9
2018-01-16T09:56:43.601Z,920.9
2018-01-16T09:57:47.212Z,920.9
2018-01-16T09:58:50.731Z,920.9
2018-01-16T09:59:55.632Z,920.8
2018-01-16T10:00:59.736Z,921
2018-01-16T10:02:06.984Z,921
2018-01-16T10:03:11.071Z,920.9
2018-01-16T10:04:14.615Z,921
2018-01-16T10:05:18.536Z,920.9
2018-01-16T10:06:22.079Z,920.9
2018-01-16T10:07:26.308Z,921
2018-01-16T10:08:32.287Z,921
2018-01-16T10:09:36.991Z,921
2018-01-16T10:10:40.444Z,921.1
2018-01-16T10:11:44.927Z,921
2018-01-16T10:12:52.710Z,921.2
2018-01-16T10:13:56.270Z,921.1
2018-01-16T10:14:59.638Z,921.2
2018-01-16T10:16:03.096Z,921.2
2018-01-16T10:17:06.427Z,921.1
2018-01-16T10:18:10.464Z,917.6
2018-01-16T10:19:14.316Z,921
2018-01-16T10:20:19.109Z,921
2018-01-16T10:21:22.426Z,921
2018-01-16T10:22:27.142Z,921
2018-01-16T10:23:34.960Z,921.1
2018-01-16T10:24:39.650Z,921
2018-01-16T10:25:43.727Z,921
2018-01-16T10:26:47.895Z,920.9
2018-01-16T10:27:51.779Z,921
2018-01-16T10:28:56.147Z,921
2018-01-16T10:29:59.496Z,921
2018-01-16T10:31:03.814Z,921.1
2018-01-16T10:32:07.726Z,921.1
2018-01-16T10:33:13.320Z,921
2018-01-16T10:34:22.152Z,921
2018-01-16T10:35:25.509Z,921.1
2018-01-16T10:36:28.992Z,921.1
2018-01-16T10:37:35.761Z,921.1
2018-01-16T10:38:40.585Z,921
2018-01-16T10:39:45.198Z,921
2018-01-16T10:40:49.253Z,921.1
2018-01-16T10:41:55.303Z,921
2018-01-16T10:42:59.669Z,920.8
2018-01-16T10:44:03.729Z,920.8
2018-01-16T10:45:12.831Z,920.8
2018-01-16T10:46:16.975Z,920.6
2018-01-16T10:47:21.381Z,920.7
2018-01-16T10:48:24.901Z,920.7
2018-01-16T10:49:29.258Z,920.8
2018-01-16T10:50:34.821Z,920.7
2018-01-16T10:51:39.528Z,920.6
2018-01-16T10:52:46.417Z,920.5
2018-01-16T10:53:50.606Z,920.6
2018-01-16T10:54:55.694Z,920.8
2018-01-16T10:56:03.671Z,920.7
2018-01-16T10:57:12.237Z,920.5
2018-01-16T10:58:15.691Z,920.3
2018-01-16T10:59:21.394Z,920.4
2018-01-16T11:00:25.328Z,920.5
2018-01-16T11:01:29.316Z,920.5
2018-01-16T11:02:34.583Z,920.2
2018-01-16T11:03:38.294Z,920.4
2018-01-16T11:04:44.516Z,920.3
2018-01-16T11:05:50.134Z,920.3
2018-01-16T11:06:58.443Z,919.8
2018-01-16T11:08:05.221Z,920.1
2018-01-16T11:09:09.363Z,920.1
2018-01-16T11:10:16.528Z,920.2
2018-01-16T11:11:20.631Z,920.1
2018-01-16T11:12:26.903Z,920
2018-01-16T11:13:33.326Z,920
2018-01-16T11:14:38.025Z,919.9
2018-01-16T11:15:43.588Z,920
2018-01-16T11:16:50.678Z,919.9
2018-01-16T11:19:05.121Z,919.8
2018-01-16T11:20:11.116Z,919.6
2018-01-16T11:21:16.498Z,919.7
2018-01-16T11:22:20.007Z,919.6
2018-01-16T11:23:28.481Z,919.8
2018-01-16T11:24:34.351Z,919.7
2018-01-16T11:25:39.088Z,919.8
2018-01-16T11:26:44.617Z,919.7
2018-01-16T11:27:49.153Z,919.7
2018-01-16T11:28:52.206Z,919.6
2018-01-16T11:30:31.254Z,919.7
2018-01-16T11:31:37.926Z,919.7
2018-01-16T11:32:42.082Z,919.7
2018-01-16T11:33:48.933Z,919.7
2018-01-16T11:34:52.184Z,919.9
2018-01-16T11:35:55.636Z,919.8
2018-01-16T11:36:59.107Z,919.8
2018-01-16T11:38:03.574Z,919.6
2018-01-16T11:39:07.531Z,919.9
2018-01-16T11:40:11.400Z,919.9
2018-01-16T11:41:19.795Z,919.8
2018-01-16T11:42:23.790Z,919.8
2018-01-16T11:43:28.430Z,919.8
2018-01-16T11:44:33.674Z,919.8
2018-01-16T11:45:37.729Z,919.7
2018-01-16T11:46:43.457Z,919.8
2018-01-16T11:47:49.451Z,919.7
2018-01-16T11:48:53.936Z,919.8
2018-01-16T11:49:58.577Z,919.6
2018-01-16T11:51:02.135Z,919.5
2018-01-16T11:52:10.383Z,919.5
2018-01-16T11:53:15.463Z,919.5
2018-01-16T11:54:19.726Z,919.4
2018-01-16T11:55:24.181Z,919.5
2018-01-16T11:56:31.712Z,919.5
2018-01-16T11:57:37.743Z,919.5
2018-01-16T11:58:41.161Z,919.5
2018-01-16T11:59:44.599Z,919.3
2018-01-16T12:00:49.197Z,919.4
2018-01-16T12:01:52.598Z,919.4
2018-01-16T12:02:59.861Z,919.5
2018-01-16T12:04:03.977Z,919.5
2018-01-16T12:05:09.048Z,919.2
2018-01-16T12:06:12.523Z,919.4
2018-01-16T12:07:15.873Z,919.4
2018-01-16T12:08:19.311Z,919.5
2018-01-16T12:09:22.947Z,919.3
2018-01-16T12:10:27.322Z,919.4
2018-01-16T12:11:30.805Z,919.3
2018-01-16T12:12:34.972Z,919.4
2018-01-16T12:13:43.027Z,919.4
2018-01-16T12:14:46.959Z,919.2
2018-01-16T12:15:50.342Z,919.4
2018-01-16T12:16:53.904Z,919.1
2018-01-16T12:17:57.337Z,919.3
2018-01-16T12:19:00.883Z,915.6
2018-01-16T12:20:04.286Z,919.2
2018-01-16T12:21:07.666Z,919.2
2018-01-16T12:22:11.088Z,919.2
2018-01-16T12:23:14.422Z,919.2
2018-01-16T12:24:21.367Z,919.2
2018-01-16T12:25:24.758Z,919
2018-01-16T12:26:29.670Z,919.1
2018-01-16T12:27:33.051Z,919
2018-01-16T12:28:36.516Z,919
2018-01-16T12:29:40.460Z,918.8
2018-01-16T12:30:44.551Z,918.8
2018-01-16T12:31:49.058Z,918.7
2018-01-16T12:32:52.225Z,918.7
2018-01-16T12:33:57.031Z,918.8
2018-01-16T12:35:06.071Z,918.8
2018-01-16T12:36:11.959Z,918.7
2018-01-16T12:37:15.440Z,918.9
2018-01-16T12:38:18.784Z,918.9
2018-01-16T12:39:22.292Z,918.8
2018-01-16T12:40:25.632Z,918.7
2018-01-16T12:41:29.094Z,918.7
2018-01-16T12:42:33.234Z,918.5
2018-01-16T12:43:36.291Z,918.5
2018-01-16T12:44:41.901Z,918.6
2018-01-16T12:45:48.708Z,919
2018-01-16T12:46:54.809Z,918.5
2018-01-16T12:47:59.323Z,918.5
2018-01-16T12:49:03.452Z,918.6
2018-01-16T12:50:06.969Z,918.6
2018-01-16T12:51:10.451Z,918.5
2018-01-16T12:52:13.898Z,918.5
2018-01-16T12:53:18.447Z,918.5
2018-01-16T12:54:21.734Z,918.5
2018-01-16T12:55:25.751Z,918.5
2018-01-16T12:56:32.455Z,918.5
2018-01-16T12:57:36.685Z,918.4
2018-01-16T12:58:40.750Z,918.3
2018-01-16T12:59:44.266Z,918.5
2018-01-16T13:00:48.228Z,918.4
2018-01-16T13:01:51.611Z,918.4
2018-01-16T13:02:55.057Z,918.3
2018-01-16T13:03:59.083Z,918.3
2018-01-16T13:05:03.064Z,918.3
2018-01-16T13:06:07.669Z,918.3
2018-01-16T13:07:47.183Z,918.4
2018-01-16T13:08:50.525Z,918.4
2018-01-16T13:09:54.277Z,918.5
2018-01-16T13:10:58.663Z,918.4
2018-01-16T13:12:02.872Z,918.5
2018-01-16T13:13:06.343Z,918.6
2018-01-16T13:14:09.954Z,918.8
2018-01-16T13:15:13.484Z,918.7
2018-01-16T13:16:16.976Z,918.7
2018-01-16T13:17:20.454Z,918.8
2018-01-16T13:18:28.087Z,918.7
2018-01-16T13:19:31.359Z,918.5
2018-01-16T13:20:34.827Z,918.7
2018-01-16T13:21:40.445Z,918.6
2018-01-16T13:22:43.895Z,918.8
2018-01-16T13:23:47.403Z,918.4
2018-01-16T13:24:52.206Z,918.5
2018-01-16T13:25:55.831Z,918.3
2018-01-16T13:26:59.192Z,918.6
2018-01-16T13:28:04.161Z,918.5
2018-01-16T13:29:11.873Z,918.5
2018-01-16T13:30:16.018Z,918.4
2018-01-16T13:31:21.178Z,918.5
2018-01-16T13:32:26.901Z,918.7
2018-01-16T13:33:30.925Z,918.7
2018-01-16T13:34:34.294Z,918.6
2018-01-16T13:35:37.866Z,918.4
2018-01-16T13:36:41.364Z,918.5
2018-01-16T13:37:44.879Z,918.4
2018-01-16T13:38:48.242Z,918.5
2018-01-16T13:40:27.849Z,918.3
2018-01-16T13:41:31.823Z,918.2
2018-01-16T13:42:35.916Z,918.4
2018-01-16T13:43:39.289Z,918.2
2018-01-16T13:44:42.692Z,918.3
2018-01-16T13:45:45.882Z,918.2
2018-01-16T13:46:49.310Z,918.3
2018-01-16T13:47:53.379Z,918.3
2018-01-16T13:48:56.860Z,918.3
2018-01-16T13:50:00.064Z,918.3
2018-01-16T13:51:09.900Z,918.4
2018-01-16T13:52:13.425Z,918.2
2018-01-16T13:53:16.621Z,918.2
2018-01-16T13:54:20.045Z,918.3
2018-01-16T13:55:23.532Z,918.3
2018-01-16T13:56:28.885Z,918.3
2018-01-16T13:57:32.988Z,918.3
2018-01-16T13:58:37.273Z,918.3
2018-01-16T13:59:42.052Z,918.2